Portada
METAR-TAF:

METAR-TAF

Aeroports :

Narathiwat, Tailàndia

latitud: 6-31-12N, longitud: 101-44-36E, altitud: 5 m

Observació

L'informe es va fer fa 1 hora i 11 minuts, a les 07:00 UTC
Vent 8 kt del Est/Nord-Est, variant entre Nord/Nord-Est i Est
Temperatura 30°C
Humitat 70%
Pressió 1006 hPa
Visibilitat 10 km o més
Escasses núvols a una alçada de 2000 ft, Cumulus congestus.
xàfecs en les proximitats

METAR: VTSC 300700Z 06008KT 030V100 9999 VCSH FEW020TCU 30/24 Q1006 TEMPO FM0715 TL0745 4000 RA

Hora: 15:11 (08:11 UTC)

Pronòstic

L'informe es va fer fa 3 hores i 11 minuts, a les 05:00 UTC
Pronòstic vàlid del 30 a les 06 UTC al 01 a les 06 UTC
Vent 8 kt del Est/Nord-Est
Visibilitat 10 km o més
Núvols disperses a una alçada de 2000 ft

TAF: VTSC 300500Z 3006/0106 07008KT 9999 SCT020

Observacions i pronòstics meteorològics de més de 4000 aeroports (METAR i TAF).

Les estacions disponibles són els punts grocs i vermells al mapa.

Posi el ratolí al punt desitjat per veure el nom de l'estació.

Feu clic per veure les observacions i els pronòstics meteorològics.

Per canviar el mapa: feu clic els botons verds amb una creu de color negre per apropar; al botó verd amb un guió per allunyar la imatge; o en les fletxes verdes per a mapes adjacents.


METAR-TAF: